sensor_id;sensor_type;location;lat;lon;timestamp;P1;durP1;ratioP1;P2;durP2;ratioP2
25409;SDS011;13339;50.840;4.346;2022-12-18T00:01:12;32.93;;;17.17;;
25409;SDS011;13339;50.840;4.346;2022-12-18T00:03:50;31.37;;;16.67;;
25409;SDS011;13339;50.840;4.346;2022-12-18T00:06:17;30.67;;;17.17;;
25409;SDS011;13339;50.840;4.346;2022-12-18T00:08:44;33.90;;;17.27;;
25409;SDS011;13339;50.840;4.346;2022-12-18T00:11:11;30.97;;;16.73;;
25409;SDS011;13339;50.840;4.346;2022-12-18T00:13:38;37.40;;;17.43;;
25409;SDS011;13339;50.840;4.346;2022-12-18T00:16:04;31.87;;;17.07;;
25409;SDS011;13339;50.840;4.346;2022-12-18T00:18:31;31.17;;;16.50;;
25409;SDS011;13339;50.840;4.346;2022-12-18T00:20:58;29.10;;;15.83;;
25409;SDS011;13339;50.840;4.346;2022-12-18T00:23:25;37.00;;;17.23;;
25409;SDS011;13339;50.840;4.346;2022-12-18T00:25:51;36.17;;;18.30;;
25409;SDS011;13339;50.840;4.346;2022-12-18T00:28:17;33.13;;;16.17;;
25409;SDS011;13339;50.840;4.346;2022-12-18T00:30:42;30.77;;;16.80;;
25409;SDS011;13339;50.840;4.346;2022-12-18T00:33:08;30.17;;;16.63;;
25409;SDS011;13339;50.840;4.346;2022-12-18T00:35:33;28.47;;;15.87;;
25409;SDS011;13339;50.840;4.346;2022-12-18T00:37:59;30.07;;;15.27;;
25409;SDS011;13339;50.840;4.346;2022-12-18T00:40:25;32.90;;;15.93;;
25409;SDS011;13339;50.840;4.346;2022-12-18T00:42:50;24.93;;;14.60;;
25409;SDS011;13339;50.840;4.346;2022-12-18T00:45:25;26.00;;;14.30;;
25409;SDS011;13339;50.840;4.346;2022-12-18T00:47:52;27.17;;;14.67;;
25409;SDS011;13339;50.840;4.346;2022-12-18T00:50:18;29.17;;;13.93;;
25409;SDS011;13339;50.840;4.346;2022-12-18T00:52:45;30.07;;;15.37;;
25409;SDS011;13339;50.840;4.346;2022-12-18T00:55:10;26.97;;;14.37;;
25409;SDS011;13339;50.840;4.346;2022-12-18T00:57:37;29.87;;;15.73;;
25409;SDS011;13339;50.840;4.346;2022-12-18T01:00:03;27.70;;;14.67;;
25409;SDS011;13339;50.840;4.346;2022-12-18T01:02:30;29.60;;;15.40;;
25409;SDS011;13339;50.840;4.346;2022-12-18T01:04:56;29.50;;;15.50;;
25409;SDS011;13339;50.840;4.346;2022-12-18T01:07:21;26.47;;;14.40;;
25409;SDS011;13339;50.840;4.346;2022-12-18T01:09:47;25.97;;;13.30;;
25409;SDS011;13339;50.840;4.346;2022-12-18T01:12:12;24.27;;;13.53;;
25409;SDS011;13339;50.840;4.346;2022-12-18T01:14:38;27.57;;;13.67;;
25409;SDS011;13339;50.840;4.346;2022-12-18T01:17:03;27.90;;;13.20;;
25409;SDS011;13339;50.840;4.346;2022-12-18T01:19:29;26.50;;;13.30;;
25409;SDS011;13339;50.840;4.346;2022-12-18T01:21:55;23.57;;;11.80;;
25409;SDS011;13339;50.840;4.346;2022-12-18T01:24:21;22.63;;;12.40;;
25409;SDS011;13339;50.840;4.346;2022-12-18T01:26:46;19.33;;;11.20;;
25409;SDS011;13339;50.840;4.346;2022-12-18T01:29:12;23.37;;;11.37;;
25409;SDS011;13339;50.840;4.346;2022-12-18T01:31:38;26.63;;;12.43;;
25409;SDS011;13339;50.840;4.346;2022-12-18T01:34:04;20.77;;;11.00;;
25409;SDS011;13339;50.840;4.346;2022-12-18T01:36:31;24.80;;;13.30;;
25409;SDS011;13339;50.840;4.346;2022-12-18T01:39:02;21.30;;;11.23;;
25409;SDS011;13339;50.840;4.346;2022-12-18T01:41:30;21.77;;;11.37;;
25409;SDS011;13339;50.840;4.346;2022-12-18T01:50:18;22.43;;;10.67;;
25409;SDS011;13339;50.840;4.346;2022-12-18T01:55:35;23.87;;;10.50;;
25409;SDS011;13339;50.840;4.346;2022-12-18T01:58:08;22.40;;;10.83;;
25409;SDS011;13339;50.840;4.346;2022-12-18T02:00:34;22.33;;;11.60;;
25409;SDS011;13339;50.840;4.346;2022-12-18T02:03:00;22.37;;;10.57;;
25409;SDS011;13339;50.840;4.346;2022-12-18T02:08:21;18.87;;;10.33;;
25409;SDS011;13339;50.840;4.346;2022-12-18T02:27:36;17.03;;;9.60;;
25409;SDS011;13339;50.840;4.346;2022-12-18T02:30:04;17.80;;;10.00;;
25409;SDS011;13339;50.840;4.346;2022-12-18T02:32:34;20.33;;;10.50;;
25409;SDS011;13339;50.840;4.346;2022-12-18T02:35:04;19.53;;;10.37;;
25409;SDS011;13339;50.840;4.346;2022-12-18T02:37:31;20.83;;;10.17;;
25409;SDS011;13339;50.840;4.346;2022-12-18T02:39:59;19.67;;;10.03;;
25409;SDS011;13339;50.840;4.346;2022-12-18T02:42:27;19.07;;;10.23;;
25409;SDS011;13339;50.840;4.346;2022-12-18T02:44:53;22.37;;;11.17;;
25409;SDS011;13339;50.840;4.346;2022-12-18T02:47:22;18.87;;;9.83;;
25409;SDS011;13339;50.840;4.346;2022-12-18T02:50:05;19.07;;;9.70;;
25409;SDS011;13339;50.840;4.346;2022-12-18T02:58:22;18.77;;;10.17;;
25409;SDS011;13339;50.840;4.346;2022-12-18T03:03:40;17.87;;;9.10;;
25409;SDS011;13339;50.840;4.346;2022-12-18T03:06:14;17.80;;;9.30;;
25409;SDS011;13339;50.840;4.346;2022-12-18T03:08:44;19.97;;;9.67;;
25409;SDS011;13339;50.840;4.346;2022-12-18T03:11:13;16.77;;;8.97;;
25409;SDS011;13339;50.840;4.346;2022-12-18T03:13:41;15.73;;;9.20;;
25409;SDS011;13339;50.840;4.346;2022-12-18T03:16:09;18.73;;;10.13;;
25409;SDS011;13339;50.840;4.346;2022-12-18T03:18:42;17.03;;;8.83;;
25409;SDS011;13339;50.840;4.346;2022-12-18T03:21:17;16.63;;;9.37;;
25409;SDS011;13339;50.840;4.346;2022-12-18T03:23:48;16.23;;;8.83;;
25409;SDS011;13339;50.840;4.346;2022-12-18T03:26:17;17.30;;;9.50;;
25409;SDS011;13339;50.840;4.346;2022-12-18T03:28:53;18.63;;;9.67;;
25409;SDS011;13339;50.840;4.346;2022-12-18T03:31:31;16.87;;;8.40;;
25409;SDS011;13339;50.840;4.346;2022-12-18T03:33:58;17.10;;;8.77;;
25409;SDS011;13339;50.840;4.346;2022-12-18T03:36:27;18.27;;;8.83;;
25409;SDS011;13339;50.840;4.346;2022-12-18T03:38:53;16.30;;;8.63;;
25409;SDS011;13339;50.840;4.346;2022-12-18T03:50:05;15.33;;;8.60;;
25409;SDS011;13339;50.840;4.346;2022-12-18T03:52:40;14.53;;;8.10;;
25409;SDS011;13339;50.840;4.346;2022-12-18T03:55:14;14.63;;;8.07;;
25409;SDS011;13339;50.840;4.346;2022-12-18T03:57:40;16.63;;;8.70;;
25409;SDS011;13339;50.840;4.346;2022-12-18T04:00:10;16.60;;;8.43;;
25409;SDS011;13339;50.840;4.346;2022-12-18T04:02:38;17.40;;;8.90;;
25409;SDS011;13339;50.840;4.346;2022-12-18T04:05:09;17.33;;;8.60;;
25409;SDS011;13339;50.840;4.346;2022-12-18T04:07:36;17.43;;;8.60;;
25409;SDS011;13339;50.840;4.346;2022-12-18T04:10:03;17.43;;;8.67;;
25409;SDS011;13339;50.840;4.346;2022-12-18T04:12:33;15.97;;;8.77;;
25409;SDS011;13339;50.840;4.346;2022-12-18T04:14:58;15.73;;;8.23;;
25409;SDS011;13339;50.840;4.346;2022-12-18T04:17:24;16.40;;;8.90;;
25409;SDS011;13339;50.840;4.346;2022-12-18T04:19:49;15.80;;;8.00;;
25409;SDS011;13339;50.840;4.346;2022-12-18T04:22:15;13.23;;;8.00;;
25409;SDS011;13339;50.840;4.346;2022-12-18T04:24:41;18.83;;;7.63;;
25409;SDS011;13339;50.840;4.346;2022-12-18T04:27:07;14.20;;;7.70;;
25409;SDS011;13339;50.840;4.346;2022-12-18T04:29:32;14.97;;;8.10;;
25409;SDS011;13339;50.840;4.346;2022-12-18T04:31:58;15.37;;;7.90;;
25409;SDS011;13339;50.840;4.346;2022-12-18T04:34:24;13.63;;;7.43;;
25409;SDS011;13339;50.840;4.346;2022-12-18T04:36:49;15.17;;;8.40;;
25409;SDS011;13339;50.840;4.346;2022-12-18T04:39:16;17.97;;;8.50;;
25409;SDS011;13339;50.840;4.346;2022-12-18T04:41:41;15.20;;;8.30;;
25409;SDS011;13339;50.840;4.346;2022-12-18T04:44:07;15.33;;;8.50;;
25409;SDS011;13339;50.840;4.346;2022-12-18T04:46:32;13.17;;;7.57;;
25409;SDS011;13339;50.840;4.346;2022-12-18T04:48:58;15.97;;;8.13;;
25409;SDS011;13339;50.840;4.346;2022-12-18T04:51:23;15.53;;;7.63;;
25409;SDS011;13339;50.840;4.346;2022-12-18T04:53:49;14.43;;;7.87;;
25409;SDS011;13339;50.840;4.346;2022-12-18T04:56:15;16.03;;;8.63;;
25409;SDS011;13339;50.840;4.346;2022-12-18T04:58:41;16.63;;;8.67;;
25409;SDS011;13339;50.840;4.346;2022-12-18T05:01:08;13.97;;;8.07;;
25409;SDS011;13339;50.840;4.346;2022-12-18T05:03:35;14.13;;;7.80;;
25409;SDS011;13339;50.840;4.346;2022-12-18T05:06:01;15.87;;;8.23;;
25409;SDS011;13339;50.840;4.346;2022-12-18T05:08:27;11.50;;;7.20;;
25409;SDS011;13339;50.840;4.346;2022-12-18T05:11:03;16.90;;;8.73;;
25409;SDS011;13339;50.840;4.346;2022-12-18T05:13:31;14.10;;;8.03;;
25409;SDS011;13339;50.840;4.346;2022-12-18T05:15:57;13.80;;;7.33;;
25409;SDS011;13339;50.840;4.346;2022-12-18T05:18:22;14.67;;;7.87;;
25409;SDS011;13339;50.840;4.346;2022-12-18T05:20:49;14.97;;;8.00;;
25409;SDS011;13339;50.840;4.346;2022-12-18T05:23:15;13.63;;;8.20;;
25409;SDS011;13339;50.840;4.346;2022-12-18T05:25:41;13.80;;;7.33;;
25409;SDS011;13339;50.840;4.346;2022-12-18T05:28:07;12.23;;;7.33;;
25409;SDS011;13339;50.840;4.346;2022-12-18T05:30:33;15.10;;;7.17;;
25409;SDS011;13339;50.840;4.346;2022-12-18T05:32:58;12.70;;;6.83;;
25409;SDS011;13339;50.840;4.346;2022-12-18T05:35:24;13.10;;;6.60;;
25409;SDS011;13339;50.840;4.346;2022-12-18T05:37:49;14.43;;;7.17;;
25409;SDS011;13339;50.840;4.346;2022-12-18T05:40:15;12.97;;;7.47;;
25409;SDS011;13339;50.840;4.346;2022-12-18T05:42:41;14.70;;;7.03;;
25409;SDS011;13339;50.840;4.346;2022-12-18T05:45:06;13.87;;;7.33;;
25409;SDS011;13339;50.840;4.346;2022-12-18T05:47:32;10.93;;;6.80;;
25409;SDS011;13339;50.840;4.346;2022-12-18T05:49:58;11.53;;;7.00;;
25409;SDS011;13339;50.840;4.346;2022-12-18T05:52:24;10.17;;;6.80;;
25409;SDS011;13339;50.840;4.346;2022-12-18T05:54:49;13.30;;;6.83;;
25409;SDS011;13339;50.840;4.346;2022-12-18T05:57:15;12.67;;;7.00;;
25409;SDS011;13339;50.840;4.346;2022-12-18T05:59:40;13.30;;;6.57;;
25409;SDS011;13339;50.840;4.346;2022-12-18T06:02:06;10.63;;;6.70;;
25409;SDS011;13339;50.840;4.346;2022-12-18T06:04:31;13.43;;;7.10;;
25409;SDS011;13339;50.840;4.346;2022-12-18T06:06:57;13.77;;;7.00;;
25409;SDS011;13339;50.840;4.346;2022-12-18T06:09:23;12.43;;;6.73;;
25409;SDS011;13339;50.840;4.346;2022-12-18T06:11:49;12.30;;;6.70;;
25409;SDS011;13339;50.840;4.346;2022-12-18T06:14:16;15.33;;;6.97;;
25409;SDS011;13339;50.840;4.346;2022-12-18T06:16:42;10.60;;;6.47;;
25409;SDS011;13339;50.840;4.346;2022-12-18T06:19:13;13.80;;;7.10;;
25409;SDS011;13339;50.840;4.346;2022-12-18T06:21:40;12.97;;;7.00;;
25409;SDS011;13339;50.840;4.346;2022-12-18T06:24:06;14.53;;;7.37;;
25409;SDS011;13339;50.840;4.346;2022-12-18T06:26:31;11.80;;;6.73;;
25409;SDS011;13339;50.840;4.346;2022-12-18T06:28:57;14.60;;;7.00;;
25409;SDS011;13339;50.840;4.346;2022-12-18T06:31:23;13.13;;;6.90;;
25409;SDS011;13339;50.840;4.346;2022-12-18T06:33:49;12.77;;;6.80;;
25409;SDS011;13339;50.840;4.346;2022-12-18T06:36:14;9.80;;;6.57;;
25409;SDS011;13339;50.840;4.346;2022-12-18T06:38:41;10.43;;;6.43;;
25409;SDS011;13339;50.840;4.346;2022-12-18T06:41:18;11.77;;;5.70;;
25409;SDS011;13339;50.840;4.346;2022-12-18T06:43:46;12.57;;;6.40;;
25409;SDS011;13339;50.840;4.346;2022-12-18T06:46:11;16.40;;;7.00;;
25409;SDS011;13339;50.840;4.346;2022-12-18T06:48:37;12.50;;;6.87;;
25409;SDS011;13339;50.840;4.346;2022-12-18T06:51:03;10.13;;;6.27;;
25409;SDS011;13339;50.840;4.346;2022-12-18T06:53:29;10.60;;;6.50;;
25409;SDS011;13339;50.840;4.346;2022-12-18T06:55:59;12.17;;;6.20;;
25409;SDS011;13339;50.840;4.346;2022-12-18T06:58:29;12.03;;;6.20;;
25409;SDS011;13339;50.840;4.346;2022-12-18T07:01:01;12.20;;;6.47;;
25409;SDS011;13339;50.840;4.346;2022-12-18T07:03:29;11.37;;;6.50;;
25409;SDS011;13339;50.840;4.346;2022-12-18T07:05:54;11.10;;;7.17;;
25409;SDS011;13339;50.840;4.346;2022-12-18T07:08:20;12.03;;;6.63;;
25409;SDS011;13339;50.840;4.346;2022-12-18T07:10:46;13.00;;;6.60;;
25409;SDS011;13339;50.840;4.346;2022-12-18T07:13:11;11.97;;;7.13;;
25409;SDS011;13339;50.840;4.346;2022-12-18T07:15:37;14.23;;;6.93;;
25409;SDS011;13339;50.840;4.346;2022-12-18T07:18:02;14.70;;;7.07;;
25409;SDS011;13339;50.840;4.346;2022-12-18T07:20:28;11.43;;;6.33;;
25409;SDS011;13339;50.840;4.346;2022-12-18T07:22:54;11.83;;;6.70;;
25409;SDS011;13339;50.840;4.346;2022-12-18T07:25:19;12.33;;;6.70;;
25409;SDS011;13339;50.840;4.346;2022-12-18T07:27:46;10.37;;;5.97;;
25409;SDS011;13339;50.840;4.346;2022-12-18T07:30:11;13.67;;;6.43;;
25409;SDS011;13339;50.840;4.346;2022-12-18T07:32:37;17.70;;;7.03;;
25409;SDS011;13339;50.840;4.346;2022-12-18T07:35:02;13.60;;;7.10;;
25409;SDS011;13339;50.840;4.346;2022-12-18T07:37:28;14.17;;;6.80;;
25409;SDS011;13339;50.840;4.346;2022-12-18T07:39:54;10.77;;;5.83;;
25409;SDS011;13339;50.840;4.346;2022-12-18T07:42:19;12.37;;;5.83;;
25409;SDS011;13339;50.840;4.346;2022-12-18T07:45:00;12.50;;;6.53;;
25409;SDS011;13339;50.840;4.346;2022-12-18T07:47:27;9.97;;;6.07;;
25409;SDS011;13339;50.840;4.346;2022-12-18T07:49:53;10.43;;;6.20;;
25409;SDS011;13339;50.840;4.346;2022-12-18T07:52:19;14.87;;;6.87;;
25409;SDS011;13339;50.840;4.346;2022-12-18T07:54:45;10.93;;;6.60;;
25409;SDS011;13339;50.840;4.346;2022-12-18T07:57:13;14.53;;;6.90;;
25409;SDS011;13339;50.840;4.346;2022-12-18T07:59:39;10.03;;;6.17;;
25409;SDS011;13339;50.840;4.346;2022-12-18T08:02:04;10.50;;;6.60;;
25409;SDS011;13339;50.840;4.346;2022-12-18T08:04:30;12.73;;;6.70;;
25409;SDS011;13339;50.840;4.346;2022-12-18T08:06:56;12.73;;;6.80;;
25409;SDS011;13339;50.840;4.346;2022-12-18T08:09:21;14.73;;;6.97;;
25409;SDS011;13339;50.840;4.346;2022-12-18T08:11:47;12.90;;;6.60;;
25409;SDS011;13339;50.840;4.346;2022-12-18T08:14:12;10.60;;;5.93;;
25409;SDS011;13339;50.840;4.346;2022-12-18T08:16:39;13.43;;;6.93;;
25409;SDS011;13339;50.840;4.346;2022-12-18T08:19:05;11.90;;;6.60;;
25409;SDS011;13339;50.840;4.346;2022-12-18T08:21:31;15.43;;;6.90;;
25409;SDS011;13339;50.840;4.346;2022-12-18T08:23:57;11.10;;;7.20;;
25409;SDS011;13339;50.840;4.346;2022-12-18T08:26:25;11.53;;;6.47;;
25409;SDS011;13339;50.840;4.346;2022-12-18T08:28:53;12.70;;;6.43;;
25409;SDS011;13339;50.840;4.346;2022-12-18T08:31:20;12.87;;;6.20;;
25409;SDS011;13339;50.840;4.346;2022-12-18T08:33:47;11.27;;;6.60;;
25409;SDS011;13339;50.840;4.346;2022-12-18T08:36:14;12.90;;;6.90;;
25409;SDS011;13339;50.840;4.346;2022-12-18T08:38:40;10.23;;;6.17;;
25409;SDS011;13339;50.840;4.346;2022-12-18T08:41:07;11.17;;;6.73;;
25409;SDS011;13339;50.840;4.346;2022-12-18T08:43:34;12.83;;;6.97;;
25409;SDS011;13339;50.840;4.346;2022-12-18T08:46:19;12.27;;;6.93;;
25409;SDS011;13339;50.840;4.346;2022-12-18T08:48:46;14.03;;;7.67;;
25409;SDS011;13339;50.840;4.346;2022-12-18T08:51:12;13.33;;;7.30;;
25409;SDS011;13339;50.840;4.346;2022-12-18T08:53:38;14.80;;;7.10;;
25409;SDS011;13339;50.840;4.346;2022-12-18T08:56:05;16.40;;;6.90;;
25409;SDS011;13339;50.840;4.346;2022-12-18T08:58:30;14.50;;;7.67;;
25409;SDS011;13339;50.840;4.346;2022-12-18T09:01:02;11.87;;;7.23;;
25409;SDS011;13339;50.840;4.346;2022-12-18T09:03:29;14.17;;;7.83;;
25409;SDS011;13339;50.840;4.346;2022-12-18T09:05:55;14.23;;;7.43;;
25409;SDS011;13339;50.840;4.346;2022-12-18T09:08:21;14.30;;;7.80;;
25409;SDS011;13339;50.840;4.346;2022-12-18T09:10:48;14.83;;;7.87;;
25409;SDS011;13339;50.840;4.346;2022-12-18T09:13:15;14.03;;;7.90;;
25409;SDS011;13339;50.840;4.346;2022-12-18T09:15:45;12.93;;;7.50;;
25409;SDS011;13339;50.840;4.346;2022-12-18T09:18:12;10.97;;;7.40;;
25409;SDS011;13339;50.840;4.346;2022-12-18T09:20:39;14.17;;;8.87;;
25409;SDS011;13339;50.840;4.346;2022-12-18T09:23:06;12.37;;;7.90;;
25409;SDS011;13339;50.840;4.346;2022-12-18T09:25:33;18.83;;;9.97;;
25409;SDS011;13339;50.840;4.346;2022-12-18T09:28:00;52.67;;;24.83;;
25409;SDS011;13339;50.840;4.346;2022-12-18T09:30:27;34.90;;;18.83;;
25409;SDS011;13339;50.840;4.346;2022-12-18T09:32:53;20.43;;;11.70;;
25409;SDS011;13339;50.840;4.346;2022-12-18T09:35:18;16.67;;;8.83;;
25409;SDS011;13339;50.840;4.346;2022-12-18T09:37:44;17.30;;;8.87;;
25409;SDS011;13339;50.840;4.346;2022-12-18T09:40:16;19.40;;;8.13;;
25409;SDS011;13339;50.840;4.346;2022-12-18T09:43:03;18.07;;;8.63;;
25409;SDS011;13339;50.840;4.346;2022-12-18T09:45:40;16.03;;;8.73;;
25409;SDS011;13339;50.840;4.346;2022-12-18T09:48:15;14.73;;;8.23;;
25409;SDS011;13339;50.840;4.346;2022-12-18T09:50:58;14.63;;;9.20;;
25409;SDS011;13339;50.840;4.346;2022-12-18T09:54:05;14.03;;;8.60;;
25409;SDS011;13339;50.840;4.346;2022-12-18T09:56:37;16.37;;;8.53;;
25409;SDS011;13339;50.840;4.346;2022-12-18T09:59:11;14.80;;;8.23;;
25409;SDS011;13339;50.840;4.346;2022-12-18T10:01:48;16.50;;;8.87;;
25409;SDS011;13339;50.840;4.346;2022-12-18T10:04:14;13.97;;;8.77;;
25409;SDS011;13339;50.840;4.346;2022-12-18T10:06:54;16.43;;;9.83;;
25409;SDS011;13339;50.840;4.346;2022-12-18T10:09:34;18.00;;;9.40;;
25409;SDS011;13339;50.840;4.346;2022-12-18T10:12:24;23.13;;;9.73;;
25409;SDS011;13339;50.840;4.346;2022-12-18T10:15:20;15.37;;;9.27;;
25409;SDS011;13339;50.840;4.346;2022-12-18T10:18:13;15.60;;;9.53;;
25409;SDS011;13339;50.840;4.346;2022-12-18T10:20:43;18.83;;;9.80;;
25409;SDS011;13339;50.840;4.346;2022-12-18T10:25:49;17.10;;;9.53;;
25409;SDS011;13339;50.840;4.346;2022-12-18T10:28:32;18.10;;;9.30;;
25409;SDS011;13339;50.840;4.346;2022-12-18T10:31:01;26.37;;;13.10;;
25409;SDS011;13339;50.840;4.346;2022-12-18T10:33:30;19.97;;;11.20;;
25409;SDS011;13339;50.840;4.346;2022-12-18T10:35:58;17.00;;;10.00;;
25409;SDS011;13339;50.840;4.346;2022-12-18T10:38:29;16.43;;;10.03;;
25409;SDS011;13339;50.840;4.346;2022-12-18T10:44:10;21.87;;;10.10;;
25409;SDS011;13339;50.840;4.346;2022-12-18T10:46:37;19.00;;;9.53;;
25409;SDS011;13339;50.840;4.346;2022-12-18T10:49:03;15.87;;;10.60;;
25409;SDS011;13339;50.840;4.346;2022-12-18T10:51:30;16.17;;;9.47;;
25409;SDS011;13339;50.840;4.346;2022-12-18T10:56:46;17.83;;;11.37;;
25409;SDS011;13339;50.840;4.346;2022-12-18T10:59:13;21.30;;;11.20;;
25409;SDS011;13339;50.840;4.346;2022-12-18T11:04:13;21.13;;;11.60;;
25409;SDS011;13339;50.840;4.346;2022-12-18T11:07:07;20.67;;;11.33;;
25409;SDS011;13339;50.840;4.346;2022-12-18T11:09:34;20.87;;;11.60;;
25409;SDS011;13339;50.840;4.346;2022-12-18T11:12:02;18.93;;;11.27;;
25409;SDS011;13339;50.840;4.346;2022-12-18T11:14:49;18.50;;;10.13;;
25409;SDS011;13339;50.840;4.346;2022-12-18T11:17:20;20.37;;;11.50;;
25409;SDS011;13339;50.840;4.346;2022-12-18T11:19:53;22.97;;;11.53;;
25409;SDS011;13339;50.840;4.346;2022-12-18T11:22:28;19.33;;;11.90;;
25409;SDS011;13339;50.840;4.346;2022-12-18T11:25:01;20.97;;;12.37;;
25409;SDS011;13339;50.840;4.346;2022-12-18T11:27:30;17.77;;;11.13;;
25409;SDS011;13339;50.840;4.346;2022-12-18T11:30:09;19.97;;;12.57;;
25409;SDS011;13339;50.840;4.346;2022-12-18T11:32:44;21.63;;;12.53;;
25409;SDS011;13339;50.840;4.346;2022-12-18T11:35:18;20.07;;;11.80;;
25409;SDS011;13339;50.840;4.346;2022-12-18T11:37:51;22.23;;;11.80;;
25409;SDS011;13339;50.840;4.346;2022-12-18T11:40:25;21.20;;;11.97;;
25409;SDS011;13339;50.840;4.346;2022-12-18T11:42:59;20.00;;;11.23;;
25409;SDS011;13339;50.840;4.346;2022-12-18T11:45:34;21.57;;;11.53;;
25409;SDS011;13339;50.840;4.346;2022-12-18T11:50:44;21.73;;;12.13;;
25409;SDS011;13339;50.840;4.346;2022-12-18T11:53:19;21.20;;;11.70;;
25409;SDS011;13339;50.840;4.346;2022-12-18T11:55:55;20.83;;;12.20;;
25409;SDS011;13339;50.840;4.346;2022-12-18T12:09:33;21.67;;;12.63;;
25409;SDS011;13339;50.840;4.346;2022-12-18T12:17:45;21.40;;;12.70;;
25409;SDS011;13339;50.840;4.346;2022-12-18T12:21:20;22.00;;;12.20;;
25409;SDS011;13339;50.840;4.346;2022-12-18T12:23:41;20.53;;;12.23;;
25409;SDS011;13339;50.840;4.346;2022-12-18T12:34:26;27.20;;;14.27;;
25409;SDS011;13339;50.840;4.346;2022-12-18T12:37:06;25.80;;;14.00;;
25409;SDS011;13339;50.840;4.346;2022-12-18T12:39:37;26.60;;;14.10;;
25409;SDS011;13339;50.840;4.346;2022-12-18T12:42:06;29.00;;;14.00;;
25409;SDS011;13339;50.840;4.346;2022-12-18T12:45:01;25.77;;;12.93;;
25409;SDS011;13339;50.840;4.346;2022-12-18T12:47:32;24.13;;;14.43;;
25409;SDS011;13339;50.840;4.346;2022-12-18T12:50:11;25.97;;;14.33;;
25409;SDS011;13339;50.840;4.346;2022-12-18T12:52:40;24.97;;;13.33;;
25409;SDS011;13339;50.840;4.346;2022-12-18T12:55:17;24.60;;;13.30;;
25409;SDS011;13339;50.840;4.346;2022-12-18T12:57:48;26.43;;;13.93;;
25409;SDS011;13339;50.840;4.346;2022-12-18T13:00:20;21.60;;;13.10;;
25409;SDS011;13339;50.840;4.346;2022-12-18T13:05:26;27.03;;;14.77;;
25409;SDS011;13339;50.840;4.346;2022-12-18T13:07:59;27.47;;;15.00;;
25409;SDS011;13339;50.840;4.346;2022-12-18T13:10:41;28.67;;;14.10;;
25409;SDS011;13339;50.840;4.346;2022-12-18T13:15:44;26.30;;;14.60;;
25409;SDS011;13339;50.840;4.346;2022-12-18T13:18:16;28.70;;;15.03;;
25409;SDS011;13339;50.840;4.346;2022-12-18T13:25:51;29.63;;;15.90;;
25409;SDS011;13339;50.840;4.346;2022-12-18T13:31:11;26.50;;;14.97;;
25409;SDS011;13339;50.840;4.346;2022-12-18T13:33:38;28.53;;;15.17;;
25409;SDS011;13339;50.840;4.346;2022-12-18T13:36:16;30.50;;;15.97;;
25409;SDS011;13339;50.840;4.346;2022-12-18T13:41:41;34.20;;;16.53;;
25409;SDS011;13339;50.840;4.346;2022-12-18T13:44:11;30.70;;;17.10;;
25409;SDS011;13339;50.840;4.346;2022-12-18T13:46:50;35.27;;;16.70;;
25409;SDS011;13339;50.840;4.346;2022-12-18T13:49:23;32.60;;;17.13;;
25409;SDS011;13339;50.840;4.346;2022-12-18T13:51:55;31.80;;;17.33;;
25409;SDS011;13339;50.840;4.346;2022-12-18T13:54:34;34.57;;;17.37;;
25409;SDS011;13339;50.840;4.346;2022-12-18T13:57:02;37.47;;;18.87;;
25409;SDS011;13339;50.840;4.346;2022-12-18T13:59:37;31.00;;;17.00;;
25409;SDS011;13339;50.840;4.346;2022-12-18T14:02:14;33.13;;;18.73;;
25409;SDS011;13339;50.840;4.346;2022-12-18T14:04:46;31.63;;;17.37;;
25409;SDS011;13339;50.840;4.346;2022-12-18T14:07:14;30.47;;;17.93;;
25409;SDS011;13339;50.840;4.346;2022-12-18T14:09:42;31.20;;;17.87;;
25409;SDS011;13339;50.840;4.346;2022-12-18T14:12:53;32.17;;;17.20;;
25409;SDS011;13339;50.840;4.346;2022-12-18T14:15:22;37.23;;;18.90;;
25409;SDS011;13339;50.840;4.346;2022-12-18T14:17:52;35.90;;;18.37;;
25409;SDS011;13339;50.840;4.346;2022-12-18T14:20:20;31.17;;;17.17;;
25409;SDS011;13339;50.840;4.346;2022-12-18T14:22:47;36.53;;;18.57;;
25409;SDS011;13339;50.840;4.346;2022-12-18T14:27:43;35.27;;;19.63;;
25409;SDS011;13339;50.840;4.346;2022-12-18T14:30:23;30.67;;;18.60;;
25409;SDS011;13339;50.840;4.346;2022-12-18T14:33:05;34.97;;;18.53;;
25409;SDS011;13339;50.840;4.346;2022-12-18T14:35:40;37.00;;;20.40;;
25409;SDS011;13339;50.840;4.346;2022-12-18T14:41:10;37.50;;;19.63;;
25409;SDS011;13339;50.840;4.346;2022-12-18T14:43:39;32.87;;;18.87;;
25409;SDS011;13339;50.840;4.346;2022-12-18T14:46:19;39.83;;;20.50;;
25409;SDS011;13339;50.840;4.346;2022-12-18T14:48:53;34.57;;;19.07;;
25409;SDS011;13339;50.840;4.346;2022-12-18T14:51:20;34.43;;;18.33;;
25409;SDS011;13339;50.840;4.346;2022-12-18T14:53:48;36.53;;;19.20;;
25409;SDS011;13339;50.840;4.346;2022-12-18T14:59:13;39.63;;;19.97;;
25409;SDS011;13339;50.840;4.346;2022-12-18T15:02:00;35.90;;;19.53;;
25409;SDS011;13339;50.840;4.346;2022-12-18T15:04:39;36.23;;;18.93;;
25409;SDS011;13339;50.840;4.346;2022-12-18T15:09:39;35.07;;;18.47;;
25409;SDS011;13339;50.840;4.346;2022-12-18T15:12:18;34.20;;;19.07;;
25409;SDS011;13339;50.840;4.346;2022-12-18T15:15:43;37.47;;;18.90;;
25409;SDS011;13339;50.840;4.346;2022-12-18T15:18:01;36.83;;;18.93;;
25409;SDS011;13339;50.840;4.346;2022-12-18T15:20:39;37.33;;;19.03;;
25409;SDS011;13339;50.840;4.346;2022-12-18T15:23:23;40.10;;;18.63;;
25409;SDS011;13339;50.840;4.346;2022-12-18T15:26:05;36.30;;;19.10;;
25409;SDS011;13339;50.840;4.346;2022-12-18T15:31:01;33.50;;;18.43;;
25409;SDS011;13339;50.840;4.346;2022-12-18T15:33:35;39.00;;;19.83;;
25409;SDS011;13339;50.840;4.346;2022-12-18T15:36:03;35.17;;;18.90;;
25409;SDS011;13339;50.840;4.346;2022-12-18T15:38:30;35.07;;;19.03;;
25409;SDS011;13339;50.840;4.346;2022-12-18T15:40:56;38.70;;;18.97;;
25409;SDS011;13339;50.840;4.346;2022-12-18T15:43:22;36.37;;;19.73;;
25409;SDS011;13339;50.840;4.346;2022-12-18T15:45:58;35.20;;;18.93;;
25409;SDS011;13339;50.840;4.346;2022-12-18T15:48:28;42.40;;;19.73;;
25409;SDS011;13339;50.840;4.346;2022-12-18T15:50:55;36.27;;;18.50;;
25409;SDS011;13339;50.840;4.346;2022-12-18T15:53:22;35.70;;;18.70;;
25409;SDS011;13339;50.840;4.346;2022-12-18T15:55:49;37.43;;;19.80;;
25409;SDS011;13339;50.840;4.346;2022-12-18T15:58:33;32.73;;;18.07;;
25409;SDS011;13339;50.840;4.346;2022-12-18T16:00:59;35.00;;;18.07;;
25409;SDS011;13339;50.840;4.346;2022-12-18T16:03:26;46.13;;;19.43;;
25409;SDS011;13339;50.840;4.346;2022-12-18T16:05:52;34.90;;;18.63;;
25409;SDS011;13339;50.840;4.346;2022-12-18T16:08:17;35.90;;;19.10;;
25409;SDS011;13339;50.840;4.346;2022-12-18T16:10:43;34.83;;;17.93;;
25409;SDS011;13339;50.840;4.346;2022-12-18T16:13:10;35.63;;;17.40;;
25409;SDS011;13339;50.840;4.346;2022-12-18T16:15:36;35.57;;;18.60;;
25409;SDS011;13339;50.840;4.346;2022-12-18T16:18:02;36.50;;;18.60;;
25409;SDS011;13339;50.840;4.346;2022-12-18T16:20:27;36.40;;;18.83;;
25409;SDS011;13339;50.840;4.346;2022-12-18T16:22:53;35.30;;;17.47;;
25409;SDS011;13339;50.840;4.346;2022-12-18T16:27:46;39.73;;;18.80;;
25409;SDS011;13339;50.840;4.346;2022-12-18T16:30:15;33.10;;;18.70;;
25409;SDS011;13339;50.840;4.346;2022-12-18T16:32:43;38.77;;;18.80;;
25409;SDS011;13339;50.840;4.346;2022-12-18T16:35:12;34.70;;;17.50;;
25409;SDS011;13339;50.840;4.346;2022-12-18T16:37:39;34.10;;;17.93;;
25409;SDS011;13339;50.840;4.346;2022-12-18T16:40:06;34.40;;;18.27;;